Dracena, Brazil
Current Conditions -  °F | °C
As of 12:00 PM on Monday 22 Dec 2014 (Local Time) from SBDN Reporting Station
Moderate Rain Moderate Rain  
Wind Chill: 75°   Ceiling: 4000
Heat Index: 75°   Visibility: 2.5mi
Dew Point: 72°   Wind: 7mph
Humidity: 89%   Direction: 310°NW
Pressure: 29.91"   Gusts: NA
Location:  21.48°S, 51.53°W
Report Text: SBDN 221400Z 31006KT 4000 RA SCT020 BKN040 24/22 Q1013
Loading
Personal Weather Stations






























Interactive Weather Map New forecast layout! Learn more

10-Day Weather Forecast

Advertisements
Track Severe Weather on mobile